Time;durP1;ratioP1;P1;durP2;ratioP2;P2;SDS_P1;SDS_P2;PMS_P1;PMS_P2;Temp;Humidity;BMP_temperature;BMP_pressure;BME280_temperature;BME280_humidity;BME280_pressure;Samples;Min_cycle;Max_cycle;Signal;HPM_P1;HPM_P2
2021/08/30 00:01:01;;;;;;;4.68;2.97;;;16.60;91.00;;;;;;5004120;28;20045;-77
2021/08/30 00:03:28;;;;;;;6.80;2.70;;;16.60;91.00;;;;;;5038884;28;20492;-78
2021/08/30 00:05:56;;;;;;;5.93;3.42;;;16.60;91.00;;;;;;5038381;28;20044;-78
2021/08/30 00:08:23;;;;;;;6.60;3.13;;;16.50;91.10;;;;;;5047432;28;20072;-77
2021/08/30 00:10:50;;;;;;;4.85;2.75;;;16.60;91.10;;;;;;5028053;28;20052;-77
2021/08/30 00:13:17;;;;;;;8.23;3.85;;;16.50;91.00;;;;;;5041414;28;20049;-78
2021/08/30 00:15:44;;;;;;;7.70;4.00;;;16.50;91.10;;;;;;5020089;28;20098;-79
2021/08/30 00:18:11;;;;;;;7.78;4.13;;;16.50;91.10;;;;;;5052904;28;20112;-78
2021/08/30 00:20:38;;;;;;;4.90;2.92;;;16.50;91.10;;;;;;5040927;28;20045;-77
2021/08/30 00:23:05;;;;;;;6.18;3.47;;;16.40;91.10;;;;;;5036693;28;20517;-78
2021/08/30 00:25:32;;;;;;;5.75;3.33;;;16.40;91.20;;;;;;5017811;28;20486;-78
2021/08/30 00:27:59;;;;;;;5.95;3.47;;;16.40;91.20;;;;;;5016583;28;20045;-77
2021/08/30 00:30:27;;;;;;;6.90;4.05;;;16.40;91.20;;;;;;5054836;28;20504;-77
2021/08/30 00:32:54;;;;;;;5.95;2.83;;;16.40;91.20;;;;;;5021739;28;20033;-77
2021/08/30 00:35:21;;;;;;;6.28;3.22;;;16.40;91.20;;;;;;5025280;28;20042;-77
2021/08/30 00:37:48;;;;;;;6.75;3.78;;;16.40;91.30;;;;;;5020924;28;20049;-77
2021/08/30 00:40:16;;;;;;;7.38;3.38;;;16.40;91.30;;;;;;5035876;28;20064;-78
2021/08/30 00:42:47;;;;;;;4.80;2.70;;;16.40;91.30;;;;;;5026148;28;20065;-77
2021/08/30 00:45:15;;;;;;;6.45;2.97;;;16.40;91.30;;;;;;5035556;28;20214;-77
2021/08/30 00:47:43;;;;;;;6.13;2.50;;;16.40;91.30;;;;;;5037895;28;20037;-77
2021/08/30 00:50:12;;;;;;;4.93;2.50;;;16.40;91.30;;;;;;5053901;28;20037;-78
2021/08/30 00:52:42;;;;;;;6.30;2.55;;;16.50;91.50;;;;;;5040115;28;20112;-77
2021/08/30 00:55:10;;;;;;;6.00;2.72;;;16.60;91.20;;;;;;5038362;28;20746;-78
2021/08/30 00:57:37;;;;;;;6.57;3.47;;;16.60;91.20;;;;;;5037496;28;20056;-77
2021/08/30 01:00:05;;;;;;;6.15;3.65;;;16.60;91.10;;;;;;5052848;28;20057;-78
2021/08/30 01:02:36;;;;;;;6.60;3.05;;;16.70;91.10;;;;;;5038725;28;20044;-77
2021/08/30 01:05:04;;;;;;;6.10;3.13;;;16.70;91.10;;;;;;5022289;28;20049;-78
2021/08/30 01:08:00;;;;;;;4.47;2.63;;;16.70;91.00;;;;;;5044147;28;20561;-77
2021/08/30 01:10:51;;;;;;;6.18;3.13;;;16.70;91.00;;;;;;5023734;28;20425;-78
2021/08/30 01:13:38;;;;;;;7.22;3.05;;;16.80;91.00;;;;;;5046096;28;20498;-78
2021/08/30 01:16:09;;;;;;;7.95;3.17;;;16.80;91.00;;;;;;5053023;28;20086;-77
2021/08/30 01:18:37;;;;;;;4.90;2.78;;;16.80;91.00;;;;;;5023069;28;20049;-77
2021/08/30 01:21:09;;;;;;;5.15;2.95;;;16.80;91.00;;;;;;5043984;28;20679;-78
2021/08/30 01:23:39;;;;;;;4.57;2.80;;;16.90;90.90;;;;;;5035032;28;20044;-81
2021/08/30 01:26:09;;;;;;;5.72;2.92;;;16.90;90.90;;;;;;5036171;28;20072;-81
2021/08/30 01:28:46;;;;;;;5.78;2.88;;;16.90;90.90;;;;;;5017835;28;20071;-81
2021/08/30 01:31:25;;;;;;;5.32;2.50;;;16.90;90.90;;;;;;5034107;28;20045;-81
2021/08/30 01:33:52;;;;;;;4.18;2.15;;;16.90;90.90;;;;;;5019169;28;20041;-81
2021/08/30 01:36:20;;;;;;;6.07;2.47;;;16.90;90.90;;;;;;5052802;28;20044;-81
2021/08/30 01:38:48;;;;;;;5.18;2.90;;;17.00;90.90;;;;;;5040219;28;20635;-81
2021/08/30 01:41:16;;;;;;;5.97;2.65;;;17.00;90.80;;;;;;5027799;28;20041;-81
2021/08/30 01:43:46;;;;;;;5.68;2.78;;;17.00;90.80;;;;;;5047579;28;20118;-81
2021/08/30 01:46:14;;;;;;;4.53;2.47;;;17.00;90.80;;;;;;5052735;28;20040;-81
2021/08/30 01:48:48;;;;;;;5.30;3.20;;;17.00;90.80;;;;;;5032224;28;20045;-81
2021/08/30 01:51:22;;;;;;;5.53;2.22;;;17.00;90.80;;;;;;5042420;28;20040;-81
2021/08/30 01:53:52;;;;;;;4.80;2.55;;;17.10;90.70;;;;;;5042640;28;20048;-80
2021/08/30 01:56:20;;;;;;;5.18;2.70;;;17.10;90.70;;;;;;5059799;28;20099;-81
2021/08/30 02:01:35;;;;;;;5.57;3.08;;;17.10;90.70;;;;;;5040302;28;20041;-81
2021/08/30 02:04:04;;;;;;;6.18;3.10;;;17.10;90.70;;;;;;5034431;28;20048;-77
2021/08/30 02:06:31;;;;;;;4.00;2.38;;;17.10;90.70;;;;;;5033824;28;20122;-77
2021/08/30 02:08:59;;;;;;;4.55;2.75;;;17.00;90.70;;;;;;5048177;28;20098;-77
2021/08/30 02:11:36;;;;;;;5.72;2.42;;;17.00;90.70;;;;;;5048970;28;20048;-76
2021/08/30 02:14:07;;;;;;;5.50;2.72;;;17.10;90.70;;;;;;5012714;28;20040;-77
2021/08/30 02:16:35;;;;;;;4.97;2.70;;;17.00;90.70;;;;;;5013499;28;20056;-77
2021/08/30 02:19:26;;;;;;;5.80;2.35;;;17.10;90.70;;;;;;5018433;28;20068;-77
2021/08/30 02:21:57;;;;;;;4.72;2.72;;;17.10;90.60;;;;;;5035043;28;20542;-77
2021/08/30 02:24:33;;;;;;;4.35;2.40;;;17.10;90.60;;;;;;5057460;28;20478;-77
2021/08/30 02:27:12;;;;;;;5.22;2.88;;;17.10;90.60;;;;;;5031699;28;20037;-77
2021/08/30 02:29:51;;;;;;;6.40;3.08;;;17.10;90.60;;;;;;4998713;28;20053;-76
2021/08/30 02:32:19;;;;;;;6.03;3.47;;;17.10;90.70;;;;;;5044662;28;20547;-76
2021/08/30 02:34:50;;;;;;;5.57;3.38;;;17.00;90.90;;;;;;5021756;28;20049;-77
2021/08/30 02:37:17;;;;;;;7.18;3.30;;;17.00;90.60;;;;;;5014969;28;20391;-77
2021/08/30 02:39:49;;;;;;;6.43;3.47;;;17.00;90.90;;;;;;5035771;28;20040;-77
2021/08/30 02:42:18;;;;;;;4.75;3.08;;;17.00;90.60;;;;;;5034510;28;20095;-76
2021/08/30 02:44:45;;;;;;;5.53;3.47;;;17.00;90.70;;;;;;5034737;28;20053;-76
2021/08/30 02:47:14;;;;;;;5.53;3.42;;;17.00;90.70;;;;;;5054397;28;20473;-76
2021/08/30 02:49:42;;;;;;;9.10;4.53;;;17.00;90.70;;;;;;5052459;28;20045;-76
2021/08/30 02:52:11;;;;;;;6.97;4.07;;;17.00;90.70;;;;;;5051188;28;20069;-77
2021/08/30 02:54:40;;;;;;;8.57;4.20;;;16.90;90.70;;;;;;5033717;28;20095;-76
2021/08/30 02:57:08;;;;;;;6.72;4.00;;;16.90;90.70;;;;;;5031519;28;20490;-76
2021/08/30 02:59:35;;;;;;;5.68;3.70;;;16.90;90.70;;;;;;5040437;28;20040;-77
2021/08/30 03:02:03;;;;;;;6.07;3.35;;;16.90;90.70;;;;;;5041892;28;20823;-77
2021/08/30 03:04:31;;;;;;;5.97;2.92;;;16.90;90.70;;;;;;5038845;28;20041;-77
2021/08/30 03:07:01;;;;;;;5.22;2.90;;;16.90;90.70;;;;;;5050342;28;20036;-77
2021/08/30 03:09:28;;;;;;;4.82;2.65;;;16.90;90.80;;;;;;5055260;28;20039;-78
2021/08/30 03:11:57;;;;;;;5.68;3.05;;;16.90;90.80;;;;;;5056794;28;20037;-77
2021/08/30 03:14:25;;;;;;;5.95;3.30;;;16.90;90.80;;;;;;5034456;28;20037;-77
2021/08/30 03:17:05;;;;;;;9.02;3.67;;;16.90;90.80;;;;;;5045471;28;20041;-78
2021/08/30 03:19:32;;;;;;;8.18;3.83;;;16.90;90.70;;;;;;5022511;28;20493;-78
2021/08/30 03:22:01;;;;;;;6.65;3.30;;;16.90;90.70;;;;;;5049029;28;20083;-77
2021/08/30 03:24:30;;;;;;;5.43;3.55;;;17.00;90.80;;;;;;5051527;28;20065;-77
2021/08/30 03:26:58;;;;;;;5.65;3.00;;;16.90;90.80;;;;;;5017392;28;20083;-77
2021/08/30 03:29:25;;;;;;;6.57;3.38;;;16.90;90.80;;;;;;5017614;28;20049;-77
2021/08/30 03:31:53;;;;;;;6.38;3.78;;;16.90;90.80;;;;;;5014512;28;20053;-77
2021/08/30 03:34:21;;;;;;;6.97;3.63;;;16.90;90.80;;;;;;5030461;28;20099;-78
2021/08/30 03:36:49;;;;;;;6.60;3.60;;;17.00;90.80;;;;;;5013947;28;20045;-77
2021/08/30 03:39:17;;;;;;;5.38;3.25;;;17.00;90.80;;;;;;5023762;28;20045;-77
2021/08/30 03:41:46;;;;;;;4.82;3.00;;;17.00;90.80;;;;;;5032404;28;20569;-77
2021/08/30 03:44:14;;;;;;;5.40;3.30;;;17.00;90.80;;;;;;5034002;28;20488;-77
2021/08/30 03:46:42;;;;;;;7.47;3.80;;;17.00;90.80;;;;;;5011009;28;20044;-77
2021/08/30 03:49:09;;;;;;;9.73;4.68;;;17.00;90.70;;;;;;5048710;28;20045;-77
2021/08/30 03:51:37;;;;;;;7.78;4.22;;;17.00;90.70;;;;;;5052149;28;20044;-77
2021/08/30 03:54:09;;;;;;;6.88;4.03;;;17.00;90.70;;;;;;5021075;28;20048;-77
2021/08/30 03:56:38;;;;;;;6.85;3.97;;;17.10;90.70;;;;;;5040173;28;20509;-77
2021/08/30 03:59:06;;;;;;;8.10;4.32;;;17.00;90.70;;;;;;5036224;28;20083;-78
2021/08/30 04:01:33;;;;;;;7.75;5.07;;;17.00;90.80;;;;;;5038893;28;20076;-78
2021/08/30 04:04:05;;;;;;;8.77;4.68;;;17.10;90.80;;;;;;5019631;28;20079;-77
2021/08/30 04:06:33;;;;;;;7.80;4.03;;;17.10;90.70;;;;;;5029896;28;20496;-77
2021/08/30 04:09:00;;;;;;;8.05;4.13;;;17.10;90.70;;;;;;5062657;28;20090;-77
2021/08/30 04:11:28;;;;;;;6.20;4.07;;;17.10;90.70;;;;;;5054978;28;20072;-77
2021/08/30 04:13:55;;;;;;;4.80;2.80;;;17.10;90.70;;;;;;5023629;28;20060;-77
2021/08/30 04:16:22;;;;;;;5.88;3.42;;;17.10;90.70;;;;;;5033461;28;20049;-80
2021/08/30 04:18:49;;;;;;;9.52;4.15;;;17.10;90.70;;;;;;5025646;28;20435;-80
2021/08/30 04:21:17;;;;;;;7.18;4.15;;;17.20;90.70;;;;;;5027662;28;20095;-80
2021/08/30 04:23:43;;;;;;;7.15;4.35;;;17.20;90.70;;;;;;5039673;28;20051;-81
2021/08/30 04:26:10;;;;;;;6.97;3.83;;;17.20;90.70;;;;;;5018235;28;20037;-81
2021/08/30 04:28:38;;;;;;;7.63;3.63;;;17.20;90.70;;;;;;5040151;28;20044;-80
2021/08/30 04:31:04;;;;;;;7.50;3.90;;;17.20;90.70;;;;;;5036478;28;20102;-80
2021/08/30 04:33:32;;;;;;;7.25;3.60;;;17.20;90.70;;;;;;5016697;28;20083;-80
2021/08/30 04:35:59;;;;;;;6.00;3.83;;;17.30;90.70;;;;;;5022622;28;20436;-80
2021/08/30 04:38:26;;;;;;;7.97;4.15;;;17.30;90.70;;;;;;5020346;28;20103;-80
2021/08/30 04:40:53;;;;;;;6.95;3.65;;;17.30;90.70;;;;;;5040746;28;20060;-80
2021/08/30 04:43:20;;;;;;;8.45;4.53;;;17.30;90.70;;;;;;5013550;28;20132;-80
2021/08/30 04:45:47;;;;;;;7.50;3.75;;;17.30;90.70;;;;;;5015780;28;20091;-80
2021/08/30 04:48:14;;;;;;;7.38;4.53;;;17.30;90.70;;;;;;5007317;28;20112;-80
2021/08/30 04:50:41;;;;;;;7.57;4.55;;;17.30;90.80;;;;;;5050939;28;20428;-80
2021/08/30 04:53:08;;;;;;;7.07;4.45;;;17.30;90.80;;;;;;5041102;28;20091;-80
2021/08/30 04:55:37;;;;;;;8.25;4.50;;;17.30;90.70;;;;;;5044281;28;20044;-80
2021/08/30 04:58:07;;;;;;;7.32;3.85;;;17.40;90.80;;;;;;5038686;28;20175;-80
2021/08/30 05:00:35;;;;;;;4.80;3.15;;;17.30;90.70;;;;;;5025884;28;20049;-80
2021/08/30 05:03:02;;;;;;;6.82;4.10;;;17.40;90.80;;;;;;5035646;28;20049;-80
2021/08/30 05:05:30;;;;;;;6.05;3.35;;;17.40;90.70;;;;;;5053102;28;20044;-80
2021/08/30 05:07:58;;;;;;;7.05;3.40;;;17.40;90.70;;;;;;5055045;28;20047;-80
2021/08/30 05:10:25;;;;;;;8.15;4.15;;;17.30;90.70;;;;;;5035650;28;20049;-80
2021/08/30 05:12:52;;;;;;;6.75;3.55;;;17.30;90.80;;;;;;5035241;28;20129;-80
2021/08/30 05:15:19;;;;;;;5.68;3.45;;;17.40;90.80;;;;;;5023155;28;20501;-80
2021/08/30 05:17:49;;;;;;;10.52;5.00;;;17.30;90.80;;;;;;5024875;28;20075;-80
2021/08/30 05:20:16;;;;;;;9.50;4.75;;;17.30;90.80;;;;;;4995703;28;20099;-80
2021/08/30 05:22:45;;;;;;;7.35;4.72;;;17.30;90.80;;;;;;5029771;28;20100;-80
2021/08/30 05:25:13;;;;;;;8.65;4.53;;;17.30;90.80;;;;;;5036329;28;20091;-80
2021/08/30 05:27:41;;;;;;;8.32;4.50;;;17.40;90.80;;;;;;5036734;28;20135;-81
2021/08/30 05:30:08;;;;;;;9.85;4.78;;;17.40;90.80;;;;;;4987485;28;20079;-81
2021/08/30 05:32:35;;;;;;;6.00;3.33;;;17.40;90.80;;;;;;5021826;28;20036;-81
2021/08/30 05:35:02;;;;;;;7.43;4.38;;;17.40;90.80;;;;;;5001128;28;20124;-80
2021/08/30 05:37:29;;;;;;;8.57;4.38;;;17.40;90.80;;;;;;5022997;28;20101;-81
2021/08/30 05:39:56;;;;;;;7.40;4.68;;;17.40;90.80;;;;;;5026235;28;20076;-80
2021/08/30 05:42:23;;;;;;;7.38;4.13;;;17.40;90.80;;;;;;5040913;28;20056;-80
2021/08/30 05:44:50;;;;;;;6.57;3.85;;;17.40;90.80;;;;;;5010068;28;20053;-81
2021/08/30 05:47:17;;;;;;;10.50;5.35;;;17.40;90.80;;;;;;5018011;28;20116;-80
2021/08/30 05:49:44;;;;;;;6.72;3.83;;;17.40;90.80;;;;;;5027162;28;20129;-80
2021/08/30 05:52:14;;;;;;;8.10;3.78;;;17.40;90.80;;;;;;5041352;28;20079;-80
2021/08/30 05:54:41;;;;;;;8.13;4.70;;;17.40;90.80;;;;;;5022689;28;20032;-79
2021/08/30 05:57:08;;;;;;;6.72;4.00;;;17.40;90.90;;;;;;5018650;28;20049;-80
2021/08/30 05:59:36;;;;;;;7.72;4.30;;;17.40;90.80;;;;;;5025619;28;20049;-79
2021/08/30 06:02:03;;;;;;;5.95;2.97;;;17.40;90.80;;;;;;5029605;28;20049;-80
2021/08/30 06:04:31;;;;;;;7.70;4.22;;;17.50;90.80;;;;;;5027363;28;20139;-80
2021/08/30 06:06:58;;;;;;;6.78;3.60;;;17.50;90.80;;;;;;5041020;28;20048;-82
2021/08/30 06:09:25;;;;;;;8.23;3.95;;;17.60;90.80;;;;;;5021621;28;20110;-80
2021/08/30 06:11:52;;;;;;;12.38;5.63;;;17.60;90.70;;;;;;5015111;28;20037;-80
2021/08/30 06:14:19;;;;;;;7.53;4.13;;;17.70;90.70;;;;;;5030532;28;20088;-81
2021/08/30 06:16:46;;;;;;;8.07;3.78;;;17.70;90.60;;;;;;5053826;28;20041;-80
2021/08/30 06:19:13;;;;;;;10.20;5.35;;;17.70;90.60;;;;;;5041198;28;20059;-80
2021/08/30 06:21:40;;;;;;;10.05;4.75;;;17.70;90.60;;;;;;5023293;28;20076;-79
2021/08/30 06:24:07;;;;;;;7.68;4.68;;;17.70;90.60;;;;;;5059832;28;20036;-80
2021/08/30 06:26:37;;;;;;;10.90;5.13;;;17.80;90.60;;;;;;5033414;28;20037;-79
2021/08/30 06:29:05;;;;;;;10.18;5.55;;;17.80;90.60;;;;;;5014635;28;20132;-79
2021/08/30 06:31:32;;;;;;;6.32;3.75;;;17.80;90.50;;;;;;5052080;28;20061;-81
2021/08/30 06:33:59;;;;;;;7.55;4.32;;;17.90;90.50;;;;;;5051368;28;20056;-81
2021/08/30 06:36:26;;;;;;;5.47;3.20;;;18.00;90.50;;;;;;5040724;28;20037;-81
2021/08/30 06:38:53;;;;;;;6.90;3.33;;;18.00;90.50;;;;;;5019595;28;20497;-84
2021/08/30 06:41:20;;;;;;;5.65;3.28;;;18.10;90.40;;;;;;5029994;28;20052;-84
2021/08/30 06:43:47;;;;;;;5.57;3.40;;;18.20;90.40;;;;;;5005792;28;20049;-80
2021/08/30 06:46:14;;;;;;;8.07;4.45;;;18.30;90.30;;;;;;4995289;28;20147;-77
2021/08/30 06:48:41;;;;;;;7.07;4.28;;;18.40;90.50;;;;;;5006183;28;20045;-78
2021/08/30 06:51:08;;;;;;;8.02;4.50;;;18.50;90.30;;;;;;5021321;28;20057;-77
2021/08/30 06:53:35;;;;;;;8.63;4.47;;;18.50;90.10;;;;;;5053775;28;20069;-79
2021/08/30 06:56:02;;;;;;;8.57;5.13;;;18.50;90.30;;;;;;5003854;28;20052;-79
2021/08/30 06:58:29;;;;;;;7.05;4.32;;;18.50;90.00;;;;;;5054134;28;20079;-80
2021/08/30 07:00:56;;;;;;;5.50;3.60;;;18.50;90.00;;;;;;5029571;28;20053;-80
2021/08/30 07:03:23;;;;;;;9.27;4.60;;;18.50;90.00;;;;;;5031459;28;20055;-80
2021/08/30 07:05:50;;;;;;;9.10;4.95;;;18.50;90.10;;;;;;5030547;28;20515;-79
2021/08/30 07:08:20;;;;;;;8.40;5.00;;;18.50;90.10;;;;;;5002298;28;20067;-79
2021/08/30 07:10:47;;;;;;;8.48;5.05;;;18.40;90.00;;;;;;5009301;28;20062;-79
2021/08/30 07:13:15;;;;;;;7.63;4.38;;;18.50;90.10;;;;;;5035090;28;20041;-79
2021/08/30 07:15:42;;;;;;;7.88;4.95;;;18.50;90.10;;;;;;5037518;28;20102;-79
2021/08/30 07:18:09;;;;;;;10.02;5.13;;;18.50;90.10;;;;;;5032822;28;20050;-79
2021/08/30 07:20:36;;;;;;;7.30;3.88;;;18.50;90.00;;;;;;5021079;28;20492;-81
2021/08/30 07:23:03;;;;;;;9.07;4.38;;;18.60;90.00;;;;;;5000453;28;20501;-86
2021/08/30 07:25:30;;;;;;;7.15;3.95;;;18.60;90.00;;;;;;5004444;28;20049;-85
2021/08/30 07:27:57;;;;;;;8.15;4.97;;;18.60;89.90;;;;;;5037102;28;20036;-85
2021/08/30 07:30:24;;;;;;;6.18;4.43;;;18.70;89.80;;;;;;4996352;28;20042;-85
2021/08/30 07:32:51;;;;;;;10.27;5.00;;;18.70;89.70;;;;;;5028572;28;20041;-85
2021/08/30 07:35:20;;;;;;;8.02;5.47;;;18.80;89.70;;;;;;5031077;28;20856;-85
2021/08/30 07:37:48;;;;;;;4.65;3.25;;;18.80;89.60;;;;;;5032892;28;20094;-85
2021/08/30 07:40:15;;;;;;;7.05;3.63;;;18.80;89.70;;;;;;5013274;28;20076;-84
2021/08/30 07:42:42;;;;;;;8.48;4.20;;;19.00;89.50;;;;;;5017912;28;20107;-84
2021/08/30 07:45:09;;;;;;;10.50;4.97;;;19.10;89.20;;;;;;5018008;28;20041;-84
2021/08/30 07:47:36;;;;;;;7.75;4.85;;;19.20;89.00;;;;;;4993534;28;20087;-84
2021/08/30 07:50:05;;;;;;;7.82;4.78;;;19.20;88.90;;;;;;5014274;28;20428;-84
2021/08/30 07:52:33;;;;;;;10.95;6.03;;;19.30;88.90;;;;;;5002059;28;20397;-84
2021/08/30 07:55:00;;;;;;;9.60;5.15;;;19.30;88.70;;;;;;5039258;28;20497;-84
2021/08/30 07:57:27;;;;;;;12.45;6.07;;;19.30;88.50;;;;;;5030839;28;20048;-84
2021/08/30 07:59:54;;;;;;;10.10;6.40;;;19.40;88.50;;;;;;5017926;28;20073;-84
2021/08/30 08:02:21;;;;;;;9.73;6.30;;;19.30;88.30;;;;;;5024227;28;20052;-83
2021/08/30 08:04:48;;;;;;;9.13;6.05;;;19.30;88.40;;;;;;5036574;28;20071;-84
2021/08/30 08:07:15;;;;;;;10.02;5.60;;;19.30;88.50;;;;;;5027529;28;20040;-86
2021/08/30 08:09:42;;;;;;;7.40;5.65;;;19.30;88.50;;;;;;5002236;28;20045;-84
2021/08/30 08:12:09;;;;;;;7.85;4.85;;;19.20;88.50;;;;;;5037425;28;20080;-85
2021/08/30 08:14:36;;;;;;;8.02;5.60;;;19.20;88.60;;;;;;5013173;28;20451;-84
2021/08/30 08:17:05;;;;;;;6.50;3.92;;;19.20;88.60;;;;;;5015697;28;20159;-84
2021/08/30 08:19:33;;;;;;;10.15;5.60;;;19.10;88.80;;;;;;5003690;28;20060;-83
2021/08/30 08:22:02;;;;;;;7.30;4.57;;;19.10;88.80;;;;;;5003613;28;20049;-84
2021/08/30 08:24:29;;;;;;;8.75;4.95;;;19.00;88.90;;;;;;5009183;28;20111;-84
2021/08/30 08:26:57;;;;;;;9.13;5.65;;;19.00;88.90;;;;;;5019745;28;20041;-85
2021/08/30 08:29:24;;;;;;;7.85;5.10;;;19.10;88.80;;;;;;5032691;28;20045;-85
2021/08/30 08:31:51;;;;;;;7.95;5.65;;;19.20;88.60;;;;;;5035783;28;20128;-84
2021/08/30 08:34:18;;;;;;;10.85;6.75;;;19.30;88.30;;;;;;5010909;28;20091;-84
2021/08/30 08:36:45;;;;;;;10.60;6.45;;;19.50;88.00;;;;;;5016887;28;20088;-85
2021/08/30 08:39:12;;;;;;;8.82;5.35;;;19.60;87.70;;;;;;5000630;28;20505;-87
2021/08/30 08:41:40;;;;;;;9.30;5.63;;;19.70;87.60;;;;;;4999623;28;20051;-80
2021/08/30 08:44:08;;;;;;;10.55;5.90;;;19.80;87.40;;;;;;5034796;28;20053;-81
2021/08/30 08:46:37;;;;;;;8.65;5.72;;;19.90;87.00;;;;;;5026423;28;20037;-80
2021/08/30 08:49:06;;;;;;;12.63;6.70;;;20.00;86.80;;;;;;5034209;28;20075;-81
2021/08/30 08:51:35;;;;;;;11.07;6.53;;;20.10;86.30;;;;;;5020257;28;20042;-80
2021/08/30 08:54:06;;;;;;;7.85;5.72;;;20.00;86.30;;;;;;5019325;28;20053;-78
2021/08/30 08:56:34;;;;;;;7.55;5.60;;;20.10;86.60;;;;;;5036783;28;20045;-79
2021/08/30 08:59:01;;;;;;;7.70;5.50;;;20.10;86.30;;;;;;5036559;28;20080;-80
2021/08/30 09:01:30;;;;;;;8.40;5.30;;;20.20;86.10;;;;;;5039684;28;20032;-82
2021/08/30 09:03:58;;;;;;;7.85;5.13;;;20.30;86.00;;;;;;5023512;28;20139;-81
2021/08/30 09:06:29;;;;;;;7.25;4.78;;;20.30;85.90;;;;;;5022802;28;20075;-80
2021/08/30 09:09:04;;;;;;;6.40;4.50;;;20.40;85.80;;;;;;5036079;28;20029;-80
2021/08/30 09:11:37;;;;;;;7.00;4.60;;;20.40;85.60;;;;;;5043758;28;20068;-81
2021/08/30 09:14:18;;;;;;;7.78;4.70;;;20.50;85.40;;;;;;5053518;28;20143;-86
2021/08/30 09:17:00;;;;;;;6.72;4.60;;;20.50;85.20;;;;;;5014942;28;20045;-83
2021/08/30 09:19:27;;;;;;;7.28;4.22;;;20.30;85.40;;;;;;5034004;28;20064;-83
2021/08/30 09:21:54;;;;;;;7.03;4.60;;;20.20;85.50;;;;;;5033135;28;20060;-84
2021/08/30 09:24:24;;;;;;;5.80;4.03;;;20.20;85.50;;;;;;5035746;28;20069;-90
2021/08/30 09:26:57;;;;;;;4.55;3.25;;;20.20;85.60;;;;;;5020691;28;20041;-95
2021/08/30 09:29:32;;;;;;;6.75;4.38;;;20.30;85.50;;;;;;5022216;28;20037;-89
2021/08/30 09:32:14;;;;;;;6.20;4.10;;;20.40;85.10;;;;;;5035952;28;20113;-83
2021/08/30 09:34:47;;;;;;;8.10;4.15;;;20.60;84.90;;;;;;5026049;28;20048;-79
2021/08/30 09:37:41;;;;;;;5.88;3.67;;;20.80;84.50;;;;;;5033329;28;20493;-85
2021/08/30 09:40:12;;;;;;;6.38;4.47;;;20.90;83.90;;;;;;5036867;28;20051;-86
2021/08/30 09:42:54;;;;;;;6.72;4.57;;;21.00;83.90;;;;;;5008421;28;20053;-82
2021/08/30 09:45:27;;;;;;;5.35;3.42;;;21.00;83.50;;;;;;5031857;28;20057;-83
2021/08/30 09:47:57;;;;;;;5.75;4.05;;;20.90;83.70;;;;;;5020487;28;20059;-82
2021/08/30 09:50:42;;;;;;;5.35;3.47;;;20.90;83.50;;;;;;5041201;28;20448;-86
2021/08/30 09:53:10;;;;;;;5.88;4.43;;;21.00;83.30;;;;;;5037373;28;20115;-87
2021/08/30 09:55:37;;;;;;;6.55;4.18;;;21.10;83.20;;;;;;5022883;28;20056;-83
2021/08/30 09:58:07;;;;;;;4.80;3.75;;;21.00;82.70;;;;;;5024149;28;20048;-83
2021/08/30 10:00:35;;;;;;;5.88;4.60;;;21.00;82.80;;;;;;5025288;28;20053;-86
2021/08/30 10:03:03;;;;;;;6.72;4.40;;;21.00;82.80;;;;;;5018351;28;20064;-82
2021/08/30 10:05:31;;;;;;;7.32;5.07;;;20.90;82.80;;;;;;5019455;28;20094;-82
2021/08/30 10:08:01;;;;;;;8.18;4.32;;;20.80;82.70;;;;;;5010508;28;20060;-81
2021/08/30 10:10:29;;;;;;;7.57;4.75;;;20.80;82.90;;;;;;5040791;28;20102;-82
2021/08/30 10:12:58;;;;;;;5.45;3.85;;;20.80;82.80;;;;;;5043100;28;20094;-82
2021/08/30 10:15:27;;;;;;;6.43;4.03;;;20.80;82.70;;;;;;5047807;28;20033;-78
2021/08/30 10:17:55;;;;;;;5.18;3.25;;;21.00;82.60;;;;;;5018588;28;20396;-80
2021/08/30 10:21:01;;;;;;;5.00;3.60;;;21.20;82.20;;;;;;5035900;28;20072;-83
2021/08/30 10:23:48;;;;;;;5.80;4.03;;;21.40;81.60;;;;;;5033730;28;21469;-82
2021/08/30 10:26:15;;;;;;;5.65;4.00;;;21.40;81.20;;;;;;5018304;28;20098;-82
2021/08/30 10:28:45;;;;;;;5.45;3.72;;;21.40;81.20;;;;;;5015838;28;20532;-83
2021/08/30 10:31:24;;;;;;;6.32;3.80;;;21.50;81.10;;;;;;5030830;28;20065;-82
2021/08/30 10:33:54;;;;;;;7.20;4.55;;;21.50;80.90;;;;;;5033992;28;20029;-80
2021/08/30 10:36:25;;;;;;;6.28;4.25;;;21.60;80.60;;;;;;5014192;28;20049;-82
2021/08/30 10:39:02;;;;;;;5.78;3.90;;;21.60;80.50;;;;;;5017870;28;20375;-90
2021/08/30 10:41:38;;;;;;;5.70;3.50;;;21.60;80.60;;;;;;5018762;28;20524;-86
2021/08/30 10:44:11;;;;;;;4.75;3.28;;;21.60;80.60;;;;;;5022646;28;20052;-88
2021/08/30 10:46:39;;;;;;;4.35;3.03;;;21.60;80.60;;;;;;5021006;28;20115;-83
2021/08/30 10:49:21;;;;;;;5.18;3.90;;;21.60;80.70;;;;;;5032588;28;20041;-77
2021/08/30 10:51:49;;;;;;;4.97;3.40;;;21.60;80.30;;;;;;5046114;28;20090;-81
2021/08/30 10:54:19;;;;;;;4.28;2.95;;;21.60;80.40;;;;;;5033833;28;20068;-84
2021/08/30 10:57:02;;;;;;;5.13;3.53;;;21.80;80.10;;;;;;5041263;28;20110;-87
2021/08/30 10:59:31;;;;;;;4.60;3.22;;;22.10;79.30;;;;;;5023753;28;20136;-88
2021/08/30 11:02:10;;;;;;;6.15;3.65;;;22.30;79.00;;;;;;5047645;28;20132;-87
2021/08/30 11:04:41;;;;;;;5.68;3.08;;;22.30;78.60;;;;;;5018586;28;20045;-84
2021/08/30 11:07:09;;;;;;;4.43;2.67;;;22.30;78.50;;;;;;5031582;28;20037;-84
2021/08/30 11:09:42;;;;;;;6.68;3.00;;;22.20;78.60;;;;;;5017193;28;20493;-81
2021/08/30 11:12:14;;;;;;;7.00;3.88;;;22.10;78.60;;;;;;5032053;28;20041;-82
2021/08/30 11:14:57;;;;;;;4.55;3.10;;;22.00;78.70;;;;;;5013612;28;20485;-87
2021/08/30 11:17:30;;;;;;;4.65;2.95;;;21.90;78.80;;;;;;5023817;28;20060;-79
2021/08/30 11:19:57;;;;;;;;;;;21.90;78.80;;;;;;5037957;28;20052;-82
2021/08/30 11:22:32;;;;;;;4.82;2.55;;;21.80;79.10;;;;;;5015662;28;19928;-81
2021/08/30 11:25:01;;;;;;;4.40;2.33;;;21.80;79.10;;;;;;5001775;28;20158;-87
2021/08/30 11:27:32;;;;;;;3.72;2.50;;;21.90;78.90;;;;;;5022980;28;20689;-79
2021/08/30 11:30:02;;;;;;;2.80;1.85;;;22.40;77.90;;;;;;5018767;28;20095;-78
2021/08/30 11:32:31;;;;;;;4.35;2.22;;;22.40;77.30;;;;;;5045470;28;20098;-82
2021/08/30 11:35:37;;;;;;;4.78;2.70;;;22.40;77.30;;;;;;5032661;28;20119;-81
2021/08/30 11:38:11;;;;;;;4.43;2.00;;;22.40;77.30;;;;;;5016321;28;20042;-82
2021/08/30 11:40:39;;;;;;;3.25;2.20;;;22.40;77.50;;;;;;5007541;28;20055;-81
2021/08/30 11:43:17;;;;;;;3.63;2.20;;;22.40;77.30;;;;;;5007473;28;20120;-85
2021/08/30 11:45:44;;;;;;;3.35;2.15;;;22.40;77.10;;;;;;5028098;28;20055;-81
2021/08/30 11:48:15;;;;;;;2.92;1.58;;;22.40;77.30;;;;;;5019151;28;20049;-79
2021/08/30 11:50:43;;;;;;;3.63;2.00;;;22.30;77.10;;;;;;5028604;28;20033;-86
2021/08/30 11:53:12;;;;;;;2.42;1.40;;;22.30;77.20;;;;;;5032577;28;20045;-87
2021/08/30 11:55:39;;;;;;;4.63;2.22;;;22.20;77.10;;;;;;5017373;28;20041;-83
2021/08/30 11:58:07;;;;;;;3.63;2.38;;;22.10;76.90;;;;;;5015944;28;20045;-84
2021/08/30 12:00:39;;;;;;;2.50;1.67;;;22.20;77.00;;;;;;5041752;28;20532;-89
2021/08/30 12:03:16;;;;;;;2.50;1.60;;;22.40;76.60;;;;;;5029624;28;20045;-88
2021/08/30 12:05:46;;;;;;;3.80;2.22;;;23.40;75.00;;;;;;5013525;28;20068;-88
2021/08/30 12:08:13;;;;;;;3.60;2.30;;;23.70;73.60;;;;;;5013167;28;20049;-86
2021/08/30 12:10:41;;;;;;;3.80;2.55;;;23.70;73.10;;;;;;5046547;28;20504;-82
2021/08/30 12:15:51;;;;;;;4.00;2.35;;;23.30;73.70;;;;;;5056501;28;20143;-79
2021/08/30 12:18:19;;;;;;;3.35;1.90;;;23.10;74.00;;;;;;5011825;28;20041;-82
2021/08/30 12:20:47;;;;;;;3.95;2.45;;;22.90;74.70;;;;;;4994798;28;20064;-80
2021/08/30 12:23:21;;;;;;;3.53;2.30;;;22.80;74.70;;;;;;5034475;28;20551;-80
2021/08/30 12:25:51;;;;;;;3.10;2.17;;;22.80;74.80;;;;;;5049852;28;20095;-80
2021/08/30 12:28:18;;;;;;;4.53;2.65;;;22.80;74.90;;;;;;5007132;28;20505;-85
2021/08/30 12:30:47;;;;;;;3.50;2.30;;;22.80;74.30;;;;;;5019493;28;20057;-79
2021/08/30 12:33:30;;;;;;;3.03;1.83;;;22.70;74.30;;;;;;5050290;28;20087;-80
2021/08/30 12:36:00;;;;;;;4.35;2.50;;;22.60;74.40;;;;;;5031930;28;20037;-82
2021/08/30 12:38:30;;;;;;;5.07;2.63;;;22.60;74.50;;;;;;5025309;28;20103;-84
2021/08/30 12:40:59;;;;;;;4.20;2.72;;;22.50;73.40;;;;;;5008617;28;20046;-83
2021/08/30 12:43:27;;;;;;;3.80;2.67;;;22.50;73.30;;;;;;5047940;28;20049;-84
2021/08/30 12:45:59;;;;;;;;;;;22.50;73.20;;;;;;5041005;28;20068;-85
2021/08/30 12:48:28;;;;;;;3.45;2.25;;;22.60;73.60;;;;;;5036796;28;19924;-84
2021/08/30 12:50:56;;;;;;;3.70;2.25;;;22.60;73.70;;;;;;5014424;28;20045;-79
2021/08/30 12:53:24;;;;;;;3.60;2.35;;;22.70;73.40;;;;;;5015744;28;20827;-78
2021/08/30 12:55:51;;;;;;;3.28;1.88;;;22.70;73.10;;;;;;5032446;28;20040;-78
2021/08/30 12:58:19;;;;;;;3.42;2.33;;;22.90;72.80;;;;;;5051486;28;20094;-78
2021/08/30 13:00:47;;;;;;;4.20;2.45;;;23.10;72.40;;;;;;5027059;28;20153;-80
2021/08/30 13:03:15;;;;;;;3.47;1.92;;;23.30;71.50;;;;;;5037160;28;20079;-80